Latest Weather Observations for Miles

IDQ60801

Issued at 2:35 pm EST Sunday 23 November 2014 (issued every 30 minutes, with the page automatically refreshed every 10 minutes)

About weather observations | Map of weather stations | Latest weather observations for QLD | Other Formats
Station Details ID: 042112 Name: MILES CONSTANCE STREET Lat: -26.66 Lon: 150.18 Height: 304.8 m
Data from the previous 72 hours. | See also: Recent months at Miles
Date/Time
EST
Temp
°C
App
Temp
°C
Dew
Point
Rel
Hum
%
Delta-T
°C
Wind Press
QNH
hPa
Press
MSL
hPa
Rain
since 9 am
mm
Dir
 
Spd
km/h
Gust
km/h
Spd
kts
Gust
kts
23/02:30pm 38.7 37.7 14.6 24 15.3 ESE 13 20 7 11 1013.0 - 0.0
23/02:00pm 37.7 37.5 14.6 25 14.6 ENE 9 19 5 10 1013.4 - 0.0
23/01:30pm 37.3 36.9 15.3 27 14.0 NNW 11 20 6 11 1014.1 - 0.0
23/01:00pm 36.9 37.0 15.4 28 13.7 N 9 19 5 10 1014.8 - 0.0
23/12:30pm 36.1 35.9 15.7 29 13.0 NE 11 22 6 12 1015.2 - 0.0
23/12:00pm 36.3 35.9 16.2 30 12.9 N 13 28 7 15 1015.7 1014.2 0.0
23/11:30am 35.3 35.2 16.9 33 11.9 NNW 13 24 7 13 1016.2 - 0.0
23/11:00am 33.5 33.9 18.2 40 10.0 N 13 24 7 13 1016.7 - 0.0
23/10:30am 32.9 32.6 18.2 41 9.6 NNE 17 24 9 13 1017.1 - 0.0
23/10:00am 31.1 30.5 18.5 47 8.2 N 19 30 10 16 1017.5 - 0.0
23/09:30am 29.9 29.2 18.7 51 7.3 N 20 32 11 17 1017.7 - 0.0
23/09:00am 29.1 28.6 19.2 55 6.5 N 20 30 11 16 1018.0 1016.5 0.0
23/08:30am 28.1 27.6 19.0 57 5.9 N 20 28 11 15 1018.2 - 0.0
23/08:00am 27.2 26.7 19.0 61 5.3 NNW 20 28 11 15 1018.3 - 0.0
23/07:30am 26.6 26.4 19.4 64 4.7 N 19 30 10 16 1018.0 - 0.0
23/07:00am 25.8 25.6 19.3 67 4.2 N 19 28 10 15 1017.7 - 0.0
23/06:30am 25.2 26.5 20.2 74 3.3 N 13 22 7 12 1017.5 - 0.0
23/06:00am 24.2 24.9 20.4 79 2.5 N 17 24 9 13 1017.0 1015.5 0.0
23/05:30am 24.2 24.9 20.4 79 2.5 N 17 24 9 13 1016.8 - 0.0
23/05:00am 24.4 25.6 20.6 79 2.5 N 15 24 8 13 1016.2 - 0.0
23/04:30am 24.9 26.5 20.7 77 2.8 N 13 20 7 11 1015.6 - 0.0
23/04:00am 25.3 27.3 20.8 76 3.0 N 11 19 6 10 1015.0 - 0.0
23/03:30am 25.8 27.8 20.7 73 3.4 N 11 19 6 10 1014.7 - 0.0
23/03:00am 26.3 27.8 20.6 71 3.8 NNE 13 20 7 11 1014.5 1012.9 0.0
23/02:30am 26.7 28.3 20.7 69 4.0 N 13 20 7 11 1014.5 - 0.0
23/02:00am 27.0 29.0 20.7 68 4.2 N 11 19 6 10 1014.4 - 0.0
23/01:30am 27.4 28.6 20.6 66 4.5 N 15 22 8 12 1014.1 - 0.0
23/01:00am 27.8 29.3 20.6 65 4.8 N 13 20 7 11 1014.2 - 0.0
23/12:30am 28.2 30.0 20.4 62 5.2 N 11 19 6 10 1014.4 - 0.0
23/12:00am 28.7 29.7 20.3 60 5.6 N 15 22 8 12 1014.2 1012.6 0.0
 
Date/Time
EST
Temp
°C
App
Temp
°C
Dew
Point
Rel
Hum
%
Delta-T
°C
Wind Press
QNH
hPa
Press
MSL
hPa
Rain
since 9 am
mm
Dir
 
Spd
km/h
Gust
km/h
Spd
kts
Gust
kts
22/11:30pm 29.2 29.7 19.3 55 6.5 N 15 22 8 12 1014.1 - 0.0
22/11:00pm 29.8 29.6 18.6 51 7.3 N 17 28 9 15 1014.1 - 0.0
22/10:30pm 30.4 29.8 17.5 46 8.3 N 17 28 9 15 1014.0 - 0.0
22/10:00pm 30.1 29.7 16.3 43 8.7 N 13 17 7 9 1013.8 - 0.0
22/09:30pm 30.5 30.4 15.9 41 9.2 N 11 19 6 10 1013.6 - 0.0
22/09:00pm 30.8 30.8 15.2 38 9.7 N 9 13 5 7 1013.4 1011.9 0.0
22/08:30pm 31.5 31.1 15.1 37 10.2 N 11 17 6 9 1013.1 - 0.0
22/08:00pm 32.3 31.4 14.8 34 10.9 N 13 19 7 10 1012.8 - 0.0
22/07:30pm 33.2 32.7 14.8 33 11.5 N 11 20 6 11 1012.3 - 0.0
22/07:00pm 34.1 34.0 13.9 29 12.5 N 7 11 4 6 1011.9 - 0.0
22/06:30pm 35.2 35.5 14.6 29 12.9 N 6 7 3 4 1011.5 - 0.0
22/06:00pm 37.4 37.1 12.7 22 15.2 N 6 11 3 6 1010.8 1009.2 0.0
22/05:30pm 37.9 37.1 11.8 21 15.9 N 7 11 4 6 1010.5 - 0.0
22/05:00pm 38.3 36.6 11.1 19 16.4 W 11 15 6 8 1010.5 - 0.0
22/04:30pm 39.4 39.5 12.6 20 16.6 NNE 4 11 2 6 1010.3 - 0.0
22/04:00pm 38.4 37.6 11.6 20 16.3 N 7 11 4 6 1010.3 - 0.0
22/03:30pm 39.0 37.3 9.9 17 17.3 NNW 9 17 5 9 1010.7 - 0.0
22/03:00pm 39.6 38.5 12.1 19 16.9 NW 9 19 5 10 1010.8 1009.2 0.0
22/02:30pm 38.7 37.0 12.6 21 16.1 NW 13 30 7 16 1011.3 - 0.0
22/02:00pm 38.2 36.4 13.3 22 15.5 NNW 15 28 8 15 1011.7 - 0.0
22/01:30pm 37.9 36.8 14.2 24 14.9 NNW 13 20 7 11 1012.2 - 0.0
22/01:00pm 37.5 35.7 14.5 25 14.5 N 17 30 9 16 1012.7 - 0.0
22/12:30pm 36.8 35.7 14.3 26 14.1 N 13 28 7 15 1013.2 - 0.0
22/12:00pm 36.4 35.0 14.6 27 13.7 N 15 28 8 15 1013.7 1012.2 0.0
22/11:30am 35.6 34.3 14.8 28 13.1 N 15 32 8 17 1014.4 - 0.0
22/11:00am 35.2 33.6 15.1 30 12.7 N 17 28 9 15 1014.8 - 0.0
22/10:30am 34.3 32.3 15.5 32 11.9 N 20 32 11 17 1015.1 - 0.0
22/10:00am 33.0 31.5 15.3 34 11.1 NNW 17 28 9 15 1015.3 - 0.0
22/09:30am 31.5 29.5 15.6 38 10.0 N 20 33 11 18 1015.5 - 0.0
22/09:00am 31.2 29.1 15.3 38 9.9 N 20 32 11 17 1015.7 1014.2 0.0
22/08:30am 30.0 28.0 15.4 41 9.1 N 20 32 11 17 1015.9 - 0.0
22/08:00am 28.6 26.5 15.1 43 8.3 N 20 41 11 22 1015.8 - 0.0
22/07:30am 27.5 25.9 16.1 49 7.1 N 19 28 10 15 1015.8 - 0.0
22/07:00am 26.4 25.0 17.0 56 5.9 N 20 30 11 16 1015.6 - 0.0
22/06:30am 25.5 24.5 17.6 61 5.0 N 19 30 10 16 1015.2 - 0.0
22/06:00am 24.7 23.9 17.9 66 4.3 N 19 32 10 17 1014.8 1013.2 0.0
22/05:30am 24.3 24.1 17.6 66 4.2 N 15 28 8 15 1014.4 - 0.0
22/05:00am 24.4 23.8 17.6 66 4.3 N 17 26 9 14 1014.0 - 0.0
22/04:30am 24.8 24.0 17.0 62 4.9 N 17 26 9 14 1013.4 - 0.0
22/04:00am 25.3 24.6 17.4 61 5.0 N 17 28 9 15 1013.1 - 0.0
22/03:30am 25.6 25.2 18.1 63 4.8 N 17 32 9 17 1012.6 - 0.0
22/03:00am 26.2 26.3 18.4 62 5.0 N 15 24 8 13 1012.5 1011.0 0.0
22/02:30am 26.5 26.5 18.2 60 5.3 N 15 24 8 13 1012.2 - 0.0
22/02:00am 26.5 27.6 18.9 63 4.9 N 11 17 6 9 1012.3 - 0.0
22/01:30am 26.9 28.2 19.2 62 5.0 N 11 19 6 10 1012.4 - 0.0
22/01:00am 27.5 28.5 18.7 58 5.7 N 11 19 6 10 1012.6 - 0.0
22/12:30am 28.0 28.8 18.2 55 6.3 N 11 19 6 10 1012.8 - 0.0
22/12:00am 28.3 29.8 18.1 54 6.6 NNE 7 11 4 6 1013.1 1011.6 0.0
 
Date/Time
EST
Temp
°C
App
Temp
°C
Dew
Point
Rel
Hum
%
Delta-T
°C
Wind Press
QNH
hPa
Press
MSL
hPa
Rain
since 9 am
mm
Dir
 
Spd
km/h
Gust
km/h
Spd
kts
Gust
kts
21/11:30pm 28.8 30.1 17.6 50 7.2 N 7 11 4 6 1013.1 - 0.0
21/11:00pm 29.4 30.2 17.4 48 7.7 N 9 13 5 7 1013.6 - 0.0
21/10:30pm 29.7 29.8 16.6 45 8.3 N 11 17 6 9 1013.5 - 0.0
21/10:00pm 30.4 29.1 15.7 41 9.2 NNE 17 24 9 13 1013.3 - 0.0
21/09:30pm 30.7 30.0 15.3 39 9.6 NNE 13 17 7 9 1012.8 - 0.0
21/09:00pm 31.0 30.6 15.3 38 9.8 N 11 15 6 8 1012.3 1010.8 0.0
21/08:30pm 31.6 31.2 15.1 36 10.3 N 11 17 6 9 1011.9 - 0.0
21/08:00pm 31.9 31.0 14.9 35 10.6 N 13 20 7 11 1011.5 - 0.0
21/07:30pm 32.5 32.0 14.9 34 11.0 N 11 17 6 9 1011.1 - 0.0
21/07:00pm 33.2 32.1 14.4 32 11.7 N 13 22 7 12 1010.7 - 0.0
21/06:30pm 33.8 32.2 13.9 30 12.3 N 15 26 8 14 1011.0 - 0.0
21/06:00pm 34.3 32.6 13.5 28 12.8 N 15 28 8 15 1010.3 1008.8 0.0
21/05:30pm 34.9 33.7 14.0 28 13.0 N 13 22 7 12 1009.7 - 0.0
21/05:00pm 35.7 34.6 13.1 25 13.9 N 11 26 6 14 1009.5 - 0.0
21/04:30pm 36.2 34.0 13.2 25 14.2 N 17 26 9 14 1009.6 - 0.0
21/04:00pm 36.8 35.0 13.2 24 14.6 NNW 15 22 8 12 1009.9 - 0.0
21/03:30pm 36.3 34.1 13.4 25 14.2 N 17 30 9 16 1010.1 - 0.0
21/03:00pm 36.6 35.0 13.8 25 14.2 N 15 24 8 13 1010.2 1008.7 0.0
21/02:30pm 36.5 34.6 14.1 26 14.0 N 17 32 9 17 1010.8 - 0.0
21/02:00pm 37.0 35.0 14.0 25 14.4 NNW 17 30 9 16 1011.3 - 0.0
21/01:30pm 36.7 34.8 14.2 26 14.1 N 17 30 9 16 1012.0 - 0.0
21/01:00pm 35.8 34.1 13.7 26 13.7 N 15 33 8 18 1012.3 - 0.0
21/12:30pm 35.5 33.1 13.9 27 13.4 NNW 19 33 10 18 1012.7 - 0.0
21/12:00pm 35.0 33.1 14.3 29 12.9 N 17 32 9 17 1013.3 1011.8 0.0
21/11:30am 34.1 32.5 13.9 29 12.5 NNW 15 30 8 16 1013.8 - 0.0
21/11:00am 33.3 31.4 14.2 31 11.8 N 17 26 9 14 1014.3 - 0.0
21/10:30am 32.7 30.2 14.0 32 11.5 N 20 37 11 20 1014.9 - 0.0
21/10:00am 31.5 28.8 14.7 36 10.4 N 22 35 12 19 1015.2 - 0.0
21/09:30am 30.0 27.1 15.2 40 9.2 N 24 43 13 23 1015.7 - 0.0
21/09:00am 29.6 27.7 16.6 45 8.2 N 22 44 12 24 1015.7 1014.2 0.0
21/08:30am 28.5 27.0 17.7 52 6.9 N 22 37 12 20 1015.9 - 0.0
21/08:00am 27.2 26.1 17.8 56 6.0 NNW 20 33 11 18 1016.1 - 0.0
21/07:30am 26.2 24.9 18.1 61 5.2 NNW 22 39 12 21 1016.0 - 0.0
21/07:00am 25.4 24.6 18.0 63 4.7 N 19 35 10 19 1015.9 - 0.0
21/06:30am 24.7 24.0 18.3 67 4.1 N 19 33 10 18 1015.5 - 0.0
21/06:00am 23.6 22.9 18.3 72 3.4 N 19 28 10 15 1015.2 1013.7 0.0
21/05:30am 22.8 22.9 18.4 76 2.8 N 15 24 8 13 1014.8 - 0.0
21/05:00am 22.6 23.2 18.5 77 2.6 N 13 22 7 12 1014.7 - 0.0
21/04:30am 22.6 23.3 18.8 79 2.4 N 13 20 7 11 1014.6 - 0.0
21/04:00am 22.8 23.6 19.1 79 2.4 N 13 22 7 12 1014.3 - 0.0
21/03:30am 23.0 23.4 19.1 78 2.5 N 15 22 8 12 1014.1 - 0.0
21/03:00am 23.1 23.9 19.1 78 2.6 N 13 20 7 11 1014.2 1012.6 0.0
21/02:30am 23.2 23.7 19.2 78 2.6 N 15 24 8 13 1014.0 - 0.0
21/02:00am 23.1 24.1 19.5 80 2.3 NNE 13 24 7 13 1014.1 - 0.0
21/01:30am 23.4 24.9 19.7 80 2.4 N 11 20 6 11 1014.5 - 0.0
21/01:00am 24.8 24.6 18.6 68 4.0 N 17 28 9 15 1014.0 - 0.0
21/12:30am 25.1 25.5 18.9 68 4.0 N 15 24 8 13 1014.4 - 0.0
21/12:00am 25.4 25.5 19.1 68 4.1 N 17 24 9 13 1014.7 1013.1 0.0
 
Date/Time
EST
Temp
°C
App
Temp
°C
Dew
Point
Rel
Hum
%
Delta-T
°C
Wind Press
QNH
hPa
Press
MSL
hPa
Rain
since 9 am
mm
Dir
 
Spd
km/h
Gust
km/h
Spd
kts
Gust
kts
20/11:30pm 25.7 25.2 19.1 67 4.3 N 20 35 11 19 1014.8 - 0.0
20/11:00pm 26.1 25.6 19.2 65 4.5 NNE 20 33 11 18 1014.8 - 0.0
20/10:30pm 26.6 25.6 18.9 62 5.0 N 22 39 12 21 1015.1 - 0.0
20/10:00pm 27.1 26.3 18.4 59 5.6 NNE 20 33 11 18 1014.9 - 0.0
20/09:30pm 27.7 26.7 18.0 55 6.2 NNE 20 33 11 18 1014.7 - 0.0
20/09:00pm 28.6 27.2 16.9 49 7.4 NNE 20 33 11 18 1014.4 1012.8 0.0
20/08:30pm 29.2 27.4 15.9 44 8.3 NNE 20 33 11 18 1014.0 - 0.0
20/08:00pm 29.5 28.7 16.1 44 8.4 NNE 15 24 8 13 1013.7 - 0.0
20/07:30pm 30.0 28.3 15.8 42 8.9 NNE 19 35 10 19 1013.3 - 0.0
20/07:00pm 30.4 28.8 15.9 41 9.1 NNE 19 30 10 16 1012.9 - 0.0
20/06:30pm 31.0 29.3 15.7 39 9.6 NNE 19 30 10 16 1012.4 - 0.0
20/06:00pm 32.0 30.2 15.6 37 10.3 N 19 28 10 15 1011.9 1010.3 0.0
20/05:30pm 33.0 31.2 15.4 34 11.1 NNE 19 30 10 16 1011.6 - 0.0
20/05:00pm 34.1 31.9 15.0 31 12.0 NNE 20 33 11 18 1011.2 - 0.0
20/04:30pm 34.2 31.7 15.2 32 12.0 N 22 32 12 17 1011.2 - 0.0
20/04:00pm 34.1 32.7 13.4 28 12.7 N 13 26 7 14 1011.3 - 0.0
20/03:30pm 35.0 32.8 13.4 27 13.3 NW 17 30 9 16 1011.4 - 0.0
20/03:00pm 34.3 33.0 13.7 29 12.7 N 13 24 7 13 1011.7 1010.1 0.0

Other Formats:

Comma delimited format used in spreadsheet applications
http://www.bom.gov.au/fwo/IDQ60801/IDQ60801.95529.axf

JavaScript Object Notation format (JSON) in row-major order
http://www.bom.gov.au/fwo/IDQ60801/IDQ60801.95529.json